sensor_id;sensor_type;location;lat;lon;timestamp;P1;durP1;ratioP1;P2;durP2;ratioP2
5684;SDS011;2865;53.114;9.130;2022-08-23T00:02:09;5.30;;;2.20;;
5684;SDS011;2865;53.114;9.130;2022-08-23T00:04:37;3.80;;;2.13;;
5684;SDS011;2865;53.114;9.130;2022-08-23T00:07:01;4.27;;;2.23;;
5684;SDS011;2865;53.114;9.130;2022-08-23T00:09:26;3.73;;;2.60;;
5684;SDS011;2865;53.114;9.130;2022-08-23T00:11:52;6.37;;;2.63;;
5684;SDS011;2865;53.114;9.130;2022-08-23T00:14:18;4.67;;;2.80;;
5684;SDS011;2865;53.114;9.130;2022-08-23T00:16:42;2.30;;;1.60;;
5684;SDS011;2865;53.114;9.130;2022-08-23T00:19:09;4.17;;;2.47;;
5684;SDS011;2865;53.114;9.130;2022-08-23T00:21:33;3.57;;;1.77;;
5684;SDS011;2865;53.114;9.130;2022-08-23T00:24:14;3.37;;;1.83;;
5684;SDS011;2865;53.114;9.130;2022-08-23T00:29:11;2.40;;;2.20;;
5684;SDS011;2865;53.114;9.130;2022-08-23T00:31:37;5.23;;;2.17;;
5684;SDS011;2865;53.114;9.130;2022-08-23T00:34:02;4.73;;;2.40;;
5684;SDS011;2865;53.114;9.130;2022-08-23T00:36:27;4.93;;;2.60;;
5684;SDS011;2865;53.114;9.130;2022-08-23T00:38:53;2.40;;;1.90;;
5684;SDS011;2865;53.114;9.130;2022-08-23T00:41:18;3.23;;;2.57;;
5684;SDS011;2865;53.114;9.130;2022-08-23T00:43:44;6.43;;;2.53;;
5684;SDS011;2865;53.114;9.130;2022-08-23T00:46:26;2.53;;;2.00;;
5684;SDS011;2865;53.114;9.130;2022-08-23T00:49:10;5.10;;;2.20;;
5684;SDS011;2865;53.114;9.130;2022-08-23T00:51:39;6.00;;;2.30;;
5684;SDS011;2865;53.114;9.130;2022-08-23T00:54:06;5.53;;;2.27;;
5684;SDS011;2865;53.114;9.130;2022-08-23T00:56:32;4.97;;;1.80;;
5684;SDS011;2865;53.114;9.130;2022-08-23T00:58:57;4.43;;;2.07;;
5684;SDS011;2865;53.114;9.130;2022-08-23T01:01:22;2.60;;;2.40;;
5684;SDS011;2865;53.114;9.130;2022-08-23T01:03:50;2.57;;;1.80;;
5684;SDS011;2865;53.114;9.130;2022-08-23T01:06:18;2.97;;;2.40;;
5684;SDS011;2865;53.114;9.130;2022-08-23T01:08:44;2.60;;;1.97;;
5684;SDS011;2865;53.114;9.130;2022-08-23T01:11:10;3.00;;;2.70;;
5684;SDS011;2865;53.114;9.130;2022-08-23T01:13:36;6.07;;;2.30;;
5684;SDS011;2865;53.114;9.130;2022-08-23T01:16:03;3.93;;;2.10;;
5684;SDS011;2865;53.114;9.130;2022-08-23T01:18:27;4.03;;;2.43;;
5684;SDS011;2865;53.114;9.130;2022-08-23T01:20:57;3.43;;;2.40;;
5684;SDS011;2865;53.114;9.130;2022-08-23T01:23:26;7.40;;;2.20;;
5684;SDS011;2865;53.114;9.130;2022-08-23T01:26:11;3.87;;;2.30;;
5684;SDS011;2865;53.114;9.130;2022-08-23T01:28:35;4.57;;;2.20;;
5684;SDS011;2865;53.114;9.130;2022-08-23T01:31:01;3.67;;;2.37;;
5684;SDS011;2865;53.114;9.130;2022-08-23T01:33:27;5.30;;;2.27;;
5684;SDS011;2865;53.114;9.130;2022-08-23T01:35:54;2.50;;;2.30;;
5684;SDS011;2865;53.114;9.130;2022-08-23T01:38:19;3.57;;;2.40;;
5684;SDS011;2865;53.114;9.130;2022-08-23T01:40:44;3.43;;;2.73;;
5684;SDS011;2865;53.114;9.130;2022-08-23T01:43:10;2.80;;;1.83;;
5684;SDS011;2865;53.114;9.130;2022-08-23T01:45:36;1.70;;;1.60;;
5684;SDS011;2865;53.114;9.130;2022-08-23T01:48:01;4.50;;;2.67;;
5684;SDS011;2865;53.114;9.130;2022-08-23T01:50:27;3.43;;;2.40;;
5684;SDS011;2865;53.114;9.130;2022-08-23T01:52:52;3.37;;;2.23;;
5684;SDS011;2865;53.114;9.130;2022-08-23T01:55:18;2.50;;;2.30;;
5684;SDS011;2865;53.114;9.130;2022-08-23T01:57:44;3.20;;;1.90;;
5684;SDS011;2865;53.114;9.130;2022-08-23T02:00:09;4.13;;;2.47;;
5684;SDS011;2865;53.114;9.130;2022-08-23T02:02:35;3.77;;;2.37;;
5684;SDS011;2865;53.114;9.130;2022-08-23T02:05:00;4.70;;;2.30;;
5684;SDS011;2865;53.114;9.130;2022-08-23T02:07:26;4.97;;;2.40;;
5684;SDS011;2865;53.114;9.130;2022-08-23T02:09:51;2.30;;;2.20;;
5684;SDS011;2865;53.114;9.130;2022-08-23T02:12:17;7.10;;;2.23;;
5684;SDS011;2865;53.114;9.130;2022-08-23T02:14:42;3.53;;;2.27;;
5684;SDS011;2865;53.114;9.130;2022-08-23T02:17:07;5.07;;;2.00;;
5684;SDS011;2865;53.114;9.130;2022-08-23T02:19:33;3.67;;;2.50;;
5684;SDS011;2865;53.114;9.130;2022-08-23T02:21:58;7.20;;;2.60;;
5684;SDS011;2865;53.114;9.130;2022-08-23T02:24:24;5.63;;;2.60;;
5684;SDS011;2865;53.114;9.130;2022-08-23T02:26:50;4.63;;;2.73;;
5684;SDS011;2865;53.114;9.130;2022-08-23T02:29:15;5.57;;;2.60;;
5684;SDS011;2865;53.114;9.130;2022-08-23T02:31:40;6.43;;;2.80;;
5684;SDS011;2865;53.114;9.130;2022-08-23T02:34:05;4.07;;;2.27;;
5684;SDS011;2865;53.114;9.130;2022-08-23T02:36:31;4.70;;;2.60;;
5684;SDS011;2865;53.114;9.130;2022-08-23T02:38:56;4.73;;;2.37;;
5684;SDS011;2865;53.114;9.130;2022-08-23T02:41:22;5.50;;;2.50;;
5684;SDS011;2865;53.114;9.130;2022-08-23T02:43:49;4.37;;;2.97;;
5684;SDS011;2865;53.114;9.130;2022-08-23T02:46:12;5.10;;;2.30;;
5684;SDS011;2865;53.114;9.130;2022-08-23T02:48:38;4.10;;;2.47;;
5684;SDS011;2865;53.114;9.130;2022-08-23T02:51:04;4.17;;;2.97;;
5684;SDS011;2865;53.114;9.130;2022-08-23T02:53:29;7.13;;;2.77;;
5684;SDS011;2865;53.114;9.130;2022-08-23T02:55:54;3.17;;;2.27;;
5684;SDS011;2865;53.114;9.130;2022-08-23T02:58:20;3.67;;;2.57;;
5684;SDS011;2865;53.114;9.130;2022-08-23T03:00:46;7.53;;;2.57;;
5684;SDS011;2865;53.114;9.130;2022-08-23T03:03:10;4.60;;;2.50;;
5684;SDS011;2865;53.114;9.130;2022-08-23T03:05:36;5.43;;;2.63;;
5684;SDS011;2865;53.114;9.130;2022-08-23T03:08:01;2.93;;;2.13;;
5684;SDS011;2865;53.114;9.130;2022-08-23T03:10:27;5.40;;;2.73;;
5684;SDS011;2865;53.114;9.130;2022-08-23T03:12:52;4.67;;;2.50;;
5684;SDS011;2865;53.114;9.130;2022-08-23T03:15:17;8.33;;;2.83;;
5684;SDS011;2865;53.114;9.130;2022-08-23T03:17:43;2.60;;;2.23;;
5684;SDS011;2865;53.114;9.130;2022-08-23T03:20:09;4.93;;;2.70;;
5684;SDS011;2865;53.114;9.130;2022-08-23T03:22:35;3.33;;;2.80;;
5684;SDS011;2865;53.114;9.130;2022-08-23T03:25:00;5.90;;;2.77;;
5684;SDS011;2865;53.114;9.130;2022-08-23T03:27:25;2.37;;;2.17;;
5684;SDS011;2865;53.114;9.130;2022-08-23T03:29:51;3.37;;;2.23;;
5684;SDS011;2865;53.114;9.130;2022-08-23T03:32:16;5.50;;;2.83;;
5684;SDS011;2865;53.114;9.130;2022-08-23T03:34:41;3.63;;;2.83;;
5684;SDS011;2865;53.114;9.130;2022-08-23T03:37:07;4.33;;;2.60;;
5684;SDS011;2865;53.114;9.130;2022-08-23T03:39:32;4.10;;;2.90;;
5684;SDS011;2865;53.114;9.130;2022-08-23T03:41:58;3.37;;;3.07;;
5684;SDS011;2865;53.114;9.130;2022-08-23T03:44:23;4.60;;;2.77;;
5684;SDS011;2865;53.114;9.130;2022-08-23T03:46:48;8.23;;;2.47;;
5684;SDS011;2865;53.114;9.130;2022-08-23T03:49:14;3.20;;;2.90;;
5684;SDS011;2865;53.114;9.130;2022-08-23T03:51:40;8.03;;;3.10;;
5684;SDS011;2865;53.114;9.130;2022-08-23T03:54:05;3.53;;;2.50;;
5684;SDS011;2865;53.114;9.130;2022-08-23T03:56:33;2.80;;;2.40;;
5684;SDS011;2865;53.114;9.130;2022-08-23T03:58:57;3.97;;;2.90;;
5684;SDS011;2865;53.114;9.130;2022-08-23T04:01:22;3.23;;;2.53;;
5684;SDS011;2865;53.114;9.130;2022-08-23T04:03:47;3.60;;;2.40;;
5684;SDS011;2865;53.114;9.130;2022-08-23T04:06:13;4.30;;;2.93;;
5684;SDS011;2865;53.114;9.130;2022-08-23T04:08:38;5.20;;;2.67;;
5684;SDS011;2865;53.114;9.130;2022-08-23T04:11:04;3.80;;;2.90;;
5684;SDS011;2865;53.114;9.130;2022-08-23T04:13:29;3.70;;;2.57;;
5684;SDS011;2865;53.114;9.130;2022-08-23T04:15:55;4.83;;;3.40;;
5684;SDS011;2865;53.114;9.130;2022-08-23T04:18:20;3.83;;;2.77;;
5684;SDS011;2865;53.114;9.130;2022-08-23T04:20:46;2.90;;;2.67;;
5684;SDS011;2865;53.114;9.130;2022-08-23T04:23:11;3.23;;;2.93;;
5684;SDS011;2865;53.114;9.130;2022-08-23T04:25:36;6.90;;;2.80;;
5684;SDS011;2865;53.114;9.130;2022-08-23T04:28:02;3.47;;;2.83;;
5684;SDS011;2865;53.114;9.130;2022-08-23T04:30:27;4.73;;;2.70;;
5684;SDS011;2865;53.114;9.130;2022-08-23T04:32:53;3.60;;;2.77;;
5684;SDS011;2865;53.114;9.130;2022-08-23T04:35:18;5.90;;;3.23;;
5684;SDS011;2865;53.114;9.130;2022-08-23T04:37:43;2.53;;;2.33;;
5684;SDS011;2865;53.114;9.130;2022-08-23T04:40:09;3.00;;;2.53;;
5684;SDS011;2865;53.114;9.130;2022-08-23T04:42:41;4.60;;;3.40;;
5684;SDS011;2865;53.114;9.130;2022-08-23T04:45:07;5.80;;;2.40;;
5684;SDS011;2865;53.114;9.130;2022-08-23T04:47:32;6.30;;;3.00;;
5684;SDS011;2865;53.114;9.130;2022-08-23T04:49:58;5.90;;;3.00;;
5684;SDS011;2865;53.114;9.130;2022-08-23T04:52:23;3.37;;;3.07;;
5684;SDS011;2865;53.114;9.130;2022-08-23T04:54:48;2.70;;;2.50;;
5684;SDS011;2865;53.114;9.130;2022-08-23T04:57:14;10.90;;;2.90;;
5684;SDS011;2865;53.114;9.130;2022-08-23T04:59:39;5.03;;;2.87;;
5684;SDS011;2865;53.114;9.130;2022-08-23T05:02:04;6.47;;;2.80;;
5684;SDS011;2865;53.114;9.130;2022-08-23T05:04:30;3.90;;;3.07;;
5684;SDS011;2865;53.114;9.130;2022-08-23T05:06:55;4.77;;;2.80;;
5684;SDS011;2865;53.114;9.130;2022-08-23T05:09:20;5.10;;;3.13;;
5684;SDS011;2865;53.114;9.130;2022-08-23T05:11:46;2.93;;;2.63;;
5684;SDS011;2865;53.114;9.130;2022-08-23T05:14:11;5.23;;;2.80;;
5684;SDS011;2865;53.114;9.130;2022-08-23T05:16:36;5.63;;;2.90;;
5684;SDS011;2865;53.114;9.130;2022-08-23T05:19:02;4.33;;;2.97;;
5684;SDS011;2865;53.114;9.130;2022-08-23T05:21:27;5.60;;;2.93;;
5684;SDS011;2865;53.114;9.130;2022-08-23T05:23:53;9.40;;;3.10;;
5684;SDS011;2865;53.114;9.130;2022-08-23T05:26:18;4.50;;;3.10;;
5684;SDS011;2865;53.114;9.130;2022-08-23T05:28:44;9.70;;;2.90;;
5684;SDS011;2865;53.114;9.130;2022-08-23T05:31:10;9.20;;;3.20;;
5684;SDS011;2865;53.114;9.130;2022-08-23T05:33:36;3.30;;;2.73;;
5684;SDS011;2865;53.114;9.130;2022-08-23T05:36:02;4.40;;;2.87;;
5684;SDS011;2865;53.114;9.130;2022-08-23T05:38:27;4.03;;;2.70;;
5684;SDS011;2865;53.114;9.130;2022-08-23T05:40:54;5.43;;;3.60;;
5684;SDS011;2865;53.114;9.130;2022-08-23T05:43:18;3.83;;;3.00;;
5684;SDS011;2865;53.114;9.130;2022-08-23T05:45:43;5.53;;;3.00;;
5684;SDS011;2865;53.114;9.130;2022-08-23T05:48:09;5.93;;;2.60;;
5684;SDS011;2865;53.114;9.130;2022-08-23T05:50:35;10.23;;;3.20;;
5684;SDS011;2865;53.114;9.130;2022-08-23T05:52:59;6.73;;;3.17;;
5684;SDS011;2865;53.114;9.130;2022-08-23T05:55:25;5.20;;;3.20;;
5684;SDS011;2865;53.114;9.130;2022-08-23T05:57:50;6.47;;;3.03;;
5684;SDS011;2865;53.114;9.130;2022-08-23T06:00:15;3.70;;;2.90;;
5684;SDS011;2865;53.114;9.130;2022-08-23T06:02:41;5.80;;;3.20;;
5684;SDS011;2865;53.114;9.130;2022-08-23T06:05:06;8.23;;;2.97;;
5684;SDS011;2865;53.114;9.130;2022-08-23T06:07:33;4.23;;;3.20;;
5684;SDS011;2865;53.114;9.130;2022-08-23T06:09:58;5.77;;;3.30;;
5684;SDS011;2865;53.114;9.130;2022-08-23T06:12:23;4.50;;;2.80;;
5684;SDS011;2865;53.114;9.130;2022-08-23T06:14:48;4.63;;;2.90;;
5684;SDS011;2865;53.114;9.130;2022-08-23T06:17:13;10.40;;;3.00;;
5684;SDS011;2865;53.114;9.130;2022-08-23T06:19:39;4.27;;;2.40;;
5684;SDS011;2865;53.114;9.130;2022-08-23T06:22:04;5.50;;;2.80;;
5684;SDS011;2865;53.114;9.130;2022-08-23T06:24:29;2.80;;;2.20;;
5684;SDS011;2865;53.114;9.130;2022-08-23T06:26:55;3.93;;;2.50;;
5684;SDS011;2865;53.114;9.130;2022-08-23T06:29:20;8.23;;;2.67;;
5684;SDS011;2865;53.114;9.130;2022-08-23T06:31:47;7.20;;;4.43;;
5684;SDS011;2865;53.114;9.130;2022-08-23T06:34:13;3.80;;;2.57;;
5684;SDS011;2865;53.114;9.130;2022-08-23T06:36:37;4.93;;;2.40;;
5684;SDS011;2865;53.114;9.130;2022-08-23T06:39:04;5.23;;;3.20;;
5684;SDS011;2865;53.114;9.130;2022-08-23T06:41:29;5.17;;;2.53;;
5684;SDS011;2865;53.114;9.130;2022-08-23T06:43:54;5.87;;;3.20;;
5684;SDS011;2865;53.114;9.130;2022-08-23T06:46:21;5.43;;;2.33;;
5684;SDS011;2865;53.114;9.130;2022-08-23T06:48:45;4.30;;;2.47;;
5684;SDS011;2865;53.114;9.130;2022-08-23T06:51:11;2.67;;;2.47;;
5684;SDS011;2865;53.114;9.130;2022-08-23T06:53:36;3.43;;;3.13;;
5684;SDS011;2865;53.114;9.130;2022-08-23T06:56:02;6.30;;;2.80;;
5684;SDS011;2865;53.114;9.130;2022-08-23T06:58:27;5.20;;;3.00;;
5684;SDS011;2865;53.114;9.130;2022-08-23T07:00:54;3.03;;;2.73;;
5684;SDS011;2865;53.114;9.130;2022-08-23T07:03:19;6.40;;;2.80;;
5684;SDS011;2865;53.114;9.130;2022-08-23T07:05:45;6.40;;;3.07;;
5684;SDS011;2865;53.114;9.130;2022-08-23T07:08:10;3.00;;;2.40;;
5684;SDS011;2865;53.114;9.130;2022-08-23T07:10:35;3.80;;;3.00;;
5684;SDS011;2865;53.114;9.130;2022-08-23T07:13:01;4.30;;;2.30;;
5684;SDS011;2865;53.114;9.130;2022-08-23T07:15:26;4.80;;;2.23;;
5684;SDS011;2865;53.114;9.130;2022-08-23T07:17:51;3.70;;;2.80;;
5684;SDS011;2865;53.114;9.130;2022-08-23T07:20:17;2.87;;;2.20;;
5684;SDS011;2865;53.114;9.130;2022-08-23T07:22:42;7.43;;;3.00;;
5684;SDS011;2865;53.114;9.130;2022-08-23T07:25:08;5.60;;;2.53;;
5684;SDS011;2865;53.114;9.130;2022-08-23T07:27:33;10.83;;;2.30;;
5684;SDS011;2865;53.114;9.130;2022-08-23T07:29:59;2.90;;;2.50;;
5684;SDS011;2865;53.114;9.130;2022-08-23T07:32:24;8.60;;;3.00;;
5684;SDS011;2865;53.114;9.130;2022-08-23T07:34:49;5.70;;;2.50;;
5684;SDS011;2865;53.114;9.130;2022-08-23T07:37:15;2.70;;;2.10;;
5684;SDS011;2865;53.114;9.130;2022-08-23T07:39:40;4.53;;;2.70;;
5684;SDS011;2865;53.114;9.130;2022-08-23T07:42:06;9.10;;;2.57;;
5684;SDS011;2865;53.114;9.130;2022-08-23T07:44:31;4.47;;;2.33;;
5684;SDS011;2865;53.114;9.130;2022-08-23T07:46:56;6.43;;;2.37;;
5684;SDS011;2865;53.114;9.130;2022-08-23T07:49:22;3.90;;;2.47;;
5684;SDS011;2865;53.114;9.130;2022-08-23T07:51:48;19.87;;;3.40;;
5684;SDS011;2865;53.114;9.130;2022-08-23T07:54:13;6.13;;;2.43;;
5684;SDS011;2865;53.114;9.130;2022-08-23T07:56:38;3.53;;;1.83;;
5684;SDS011;2865;53.114;9.130;2022-08-23T07:59:06;3.53;;;2.03;;
5684;SDS011;2865;53.114;9.130;2022-08-23T08:01:29;4.00;;;1.60;;
5684;SDS011;2865;53.114;9.130;2022-08-23T08:03:55;7.87;;;2.07;;
5684;SDS011;2865;53.114;9.130;2022-08-23T08:06:21;6.30;;;2.00;;
5684;SDS011;2865;53.114;9.130;2022-08-23T08:08:45;5.00;;;2.00;;
5684;SDS011;2865;53.114;9.130;2022-08-23T08:11:11;14.73;;;2.90;;
5684;SDS011;2865;53.114;9.130;2022-08-23T08:13:36;2.90;;;2.13;;
5684;SDS011;2865;53.114;9.130;2022-08-23T08:16:01;3.80;;;2.00;;
5684;SDS011;2865;53.114;9.130;2022-08-23T08:18:26;2.80;;;1.80;;
5684;SDS011;2865;53.114;9.130;2022-08-23T08:20:52;7.10;;;1.93;;
5684;SDS011;2865;53.114;9.130;2022-08-23T08:23:17;2.93;;;1.70;;
5684;SDS011;2865;53.114;9.130;2022-08-23T08:25:42;3.87;;;1.37;;
5684;SDS011;2865;53.114;9.130;2022-08-23T08:28:08;2.50;;;1.40;;
5684;SDS011;2865;53.114;9.130;2022-08-23T08:30:34;3.93;;;2.40;;
5684;SDS011;2865;53.114;9.130;2022-08-23T08:32:59;3.27;;;2.17;;
5684;SDS011;2865;53.114;9.130;2022-08-23T08:35:24;2.40;;;1.70;;
5684;SDS011;2865;53.114;9.130;2022-08-23T08:37:50;6.10;;;1.70;;
5684;SDS011;2865;53.114;9.130;2022-08-23T08:40:16;4.93;;;2.17;;
5684;SDS011;2865;53.114;9.130;2022-08-23T08:42:49;6.10;;;1.87;;
5684;SDS011;2865;53.114;9.130;2022-08-23T08:45:17;3.97;;;1.90;;
5684;SDS011;2865;53.114;9.130;2022-08-23T08:47:50;2.70;;;1.93;;
5684;SDS011;2865;53.114;9.130;2022-08-23T08:50:20;3.53;;;2.17;;
5684;SDS011;2865;53.114;9.130;2022-08-23T08:52:48;1.73;;;1.53;;
5684;SDS011;2865;53.114;9.130;2022-08-23T08:55:15;4.93;;;2.00;;
5684;SDS011;2865;53.114;9.130;2022-08-23T08:57:40;4.00;;;2.10;;
5684;SDS011;2865;53.114;9.130;2022-08-23T09:00:09;4.80;;;1.70;;
5684;SDS011;2865;53.114;9.130;2022-08-23T09:02:31;5.63;;;1.60;;
5684;SDS011;2865;53.114;9.130;2022-08-23T09:04:56;2.03;;;1.73;;
5684;SDS011;2865;53.114;9.130;2022-08-23T09:07:27;5.23;;;1.70;;
5684;SDS011;2865;53.114;9.130;2022-08-23T09:10:00;4.60;;;1.67;;
5684;SDS011;2865;53.114;9.130;2022-08-23T09:12:50;2.60;;;1.60;;
5684;SDS011;2865;53.114;9.130;2022-08-23T09:15:36;3.00;;;1.30;;
5684;SDS011;2865;53.114;9.130;2022-08-23T09:18:04;4.53;;;1.60;;
5684;SDS011;2865;53.114;9.130;2022-08-23T09:20:36;4.10;;;1.60;;
5684;SDS011;2865;53.114;9.130;2022-08-23T09:23:05;1.40;;;1.30;;
5684;SDS011;2865;53.114;9.130;2022-08-23T09:25:30;4.10;;;1.77;;
5684;SDS011;2865;53.114;9.130;2022-08-23T09:27:55;2.53;;;1.20;;
5684;SDS011;2865;53.114;9.130;2022-08-23T09:30:21;3.67;;;1.43;;
5684;SDS011;2865;53.114;9.130;2022-08-23T09:32:47;3.33;;;1.20;;
5684;SDS011;2865;53.114;9.130;2022-08-23T09:35:15;8.73;;;1.50;;
5684;SDS011;2865;53.114;9.130;2022-08-23T09:37:47;8.43;;;1.40;;
5684;SDS011;2865;53.114;9.130;2022-08-23T09:40:16;4.53;;;1.10;;
5684;SDS011;2865;53.114;9.130;2022-08-23T09:42:41;2.70;;;1.60;;
5684;SDS011;2865;53.114;9.130;2022-08-23T09:47:47;1.57;;;1.40;;
5684;SDS011;2865;53.114;9.130;2022-08-23T09:50:18;1.63;;;1.20;;
5684;SDS011;2865;53.114;9.130;2022-08-23T09:52:40;2.60;;;1.43;;
5684;SDS011;2865;53.114;9.130;2022-08-23T09:55:08;1.57;;;1.20;;
5684;SDS011;2865;53.114;9.130;2022-08-23T09:57:31;1.57;;;1.10;;
5684;SDS011;2865;53.114;9.130;2022-08-23T09:59:59;4.30;;;0.73;;
5684;SDS011;2865;53.114;9.130;2022-08-23T10:02:28;1.43;;;1.07;;
5684;SDS011;2865;53.114;9.130;2022-08-23T10:05:15;4.07;;;1.40;;
5684;SDS011;2865;53.114;9.130;2022-08-23T10:07:35;7.90;;;1.40;;
5684;SDS011;2865;53.114;9.130;2022-08-23T10:10:12;1.93;;;1.10;;
5684;SDS011;2865;53.114;9.130;2022-08-23T10:12:41;1.00;;;0.90;;
5684;SDS011;2865;53.114;9.130;2022-08-23T10:15:06;1.03;;;0.93;;
5684;SDS011;2865;53.114;9.130;2022-08-23T10:17:35;2.77;;;1.20;;
5684;SDS011;2865;53.114;9.130;2022-08-23T10:20:02;9.83;;;1.47;;
5684;SDS011;2865;53.114;9.130;2022-08-23T10:22:24;1.70;;;0.87;;
5684;SDS011;2865;53.114;9.130;2022-08-23T10:24:54;1.73;;;1.17;;
5684;SDS011;2865;53.114;9.130;2022-08-23T10:27:23;2.07;;;0.80;;
5684;SDS011;2865;53.114;9.130;2022-08-23T10:30:05;3.40;;;1.00;;
5684;SDS011;2865;53.114;9.130;2022-08-23T10:32:35;10.40;;;1.20;;
5684;SDS011;2865;53.114;9.130;2022-08-23T10:35:12;0.87;;;0.83;;
5684;SDS011;2865;53.114;9.130;2022-08-23T10:37:47;1.40;;;0.97;;
5684;SDS011;2865;53.114;9.130;2022-08-23T10:40:17;2.93;;;1.20;;
5684;SDS011;2865;53.114;9.130;2022-08-23T10:42:51;3.23;;;0.93;;
5684;SDS011;2865;53.114;9.130;2022-08-23T10:45:31;0.90;;;0.80;;
5684;SDS011;2865;53.114;9.130;2022-08-23T10:48:00;1.13;;;0.80;;
5684;SDS011;2865;53.114;9.130;2022-08-23T10:50:28;0.90;;;0.80;;
5684;SDS011;2865;53.114;9.130;2022-08-23T10:52:54;0.83;;;0.70;;
5684;SDS011;2865;53.114;9.130;2022-08-23T10:55:22;1.50;;;0.83;;
5684;SDS011;2865;53.114;9.130;2022-08-23T10:57:45;2.00;;;0.73;;
5684;SDS011;2865;53.114;9.130;2022-08-23T11:00:11;2.43;;;1.33;;
5684;SDS011;2865;53.114;9.130;2022-08-23T11:02:51;0.90;;;0.77;;
5684;SDS011;2865;53.114;9.130;2022-08-23T11:05:21;3.50;;;0.90;;
5684;SDS011;2865;53.114;9.130;2022-08-23T11:07:54;0.80;;;0.70;;
5684;SDS011;2865;53.114;9.130;2022-08-23T11:10:44;4.80;;;1.50;;
5684;SDS011;2865;53.114;9.130;2022-08-23T11:16:04;1.33;;;0.87;;
5684;SDS011;2865;53.114;9.130;2022-08-23T11:18:34;2.00;;;0.87;;
5684;SDS011;2865;53.114;9.130;2022-08-23T11:21:04;0.80;;;0.80;;
5684;SDS011;2865;53.114;9.130;2022-08-23T11:23:36;1.73;;;0.80;;
5684;SDS011;2865;53.114;9.130;2022-08-23T11:26:08;2.40;;;1.00;;
5684;SDS011;2865;53.114;9.130;2022-08-23T11:28:39;1.30;;;1.10;;
5684;SDS011;2865;53.114;9.130;2022-08-23T11:31:39;1.83;;;1.10;;
5684;SDS011;2865;53.114;9.130;2022-08-23T11:33:51;3.13;;;0.67;;
5684;SDS011;2865;53.114;9.130;2022-08-23T11:36:17;1.40;;;1.30;;
5684;SDS011;2865;53.114;9.130;2022-08-23T11:41:26;1.53;;;0.97;;
5684;SDS011;2865;53.114;9.130;2022-08-23T11:44:32;1.13;;;0.90;;
5684;SDS011;2865;53.114;9.130;2022-08-23T11:46:58;1.83;;;0.87;;
5684;SDS011;2865;53.114;9.130;2022-08-23T11:55:11;2.37;;;1.07;;
5684;SDS011;2865;53.114;9.130;2022-08-23T11:58:25;2.90;;;1.20;;
5684;SDS011;2865;53.114;9.130;2022-08-23T12:03:20;1.53;;;0.97;;
5684;SDS011;2865;53.114;9.130;2022-08-23T12:06:08;4.10;;;1.47;;
5684;SDS011;2865;53.114;9.130;2022-08-23T12:08:32;1.90;;;1.10;;
5684;SDS011;2865;53.114;9.130;2022-08-23T12:10:57;1.30;;;1.00;;
5684;SDS011;2865;53.114;9.130;2022-08-23T12:13:28;4.30;;;1.17;;
5684;SDS011;2865;53.114;9.130;2022-08-23T12:18:27;2.17;;;1.30;;
5684;SDS011;2865;53.114;9.130;2022-08-23T12:20:56;1.20;;;1.00;;
5684;SDS011;2865;53.114;9.130;2022-08-23T12:23:19;2.07;;;0.93;;
5684;SDS011;2865;53.114;9.130;2022-08-23T12:25:43;1.47;;;1.07;;
5684;SDS011;2865;53.114;9.130;2022-08-23T12:28:21;1.13;;;1.00;;
5684;SDS011;2865;53.114;9.130;2022-08-23T12:31:02;2.00;;;0.90;;
5684;SDS011;2865;53.114;9.130;2022-08-23T12:33:34;1.50;;;0.90;;
5684;SDS011;2865;53.114;9.130;2022-08-23T12:36:01;3.90;;;1.30;;
5684;SDS011;2865;53.114;9.130;2022-08-23T12:41:26;2.50;;;1.83;;
5684;SDS011;2865;53.114;9.130;2022-08-23T12:43:56;3.37;;;1.00;;
5684;SDS011;2865;53.114;9.130;2022-08-23T12:46:29;5.67;;;1.07;;
5684;SDS011;2865;53.114;9.130;2022-08-23T12:48:56;0.90;;;0.73;;
5684;SDS011;2865;53.114;9.130;2022-08-23T12:51:21;1.87;;;1.43;;
5684;SDS011;2865;53.114;9.130;2022-08-23T12:53:47;2.50;;;1.93;;
5684;SDS011;2865;53.114;9.130;2022-08-23T12:58:45;1.60;;;0.90;;
5684;SDS011;2865;53.114;9.130;2022-08-23T13:01:17;5.13;;;1.00;;
5684;SDS011;2865;53.114;9.130;2022-08-23T13:03:42;1.23;;;1.13;;
5684;SDS011;2865;53.114;9.130;2022-08-23T13:06:08;2.80;;;1.30;;
5684;SDS011;2865;53.114;9.130;2022-08-23T13:08:36;2.43;;;1.17;;
5684;SDS011;2865;53.114;9.130;2022-08-23T13:10:58;1.00;;;0.90;;
5684;SDS011;2865;53.114;9.130;2022-08-23T13:13:24;4.53;;;0.70;;
5684;SDS011;2865;53.114;9.130;2022-08-23T13:15:52;2.67;;;1.57;;
5684;SDS011;2865;53.114;9.130;2022-08-23T13:23:30;1.53;;;1.20;;
5684;SDS011;2865;53.114;9.130;2022-08-23T13:25:55;1.57;;;1.33;;
5684;SDS011;2865;53.114;9.130;2022-08-23T13:28:22;2.60;;;1.00;;
5684;SDS011;2865;53.114;9.130;2022-08-23T13:33:22;3.33;;;1.20;;
5684;SDS011;2865;53.114;9.130;2022-08-23T13:35:48;2.57;;;1.23;;
5684;SDS011;2865;53.114;9.130;2022-08-23T13:40:58;2.03;;;1.23;;
5684;SDS011;2865;53.114;9.130;2022-08-23T13:43:58;2.07;;;1.20;;
5684;SDS011;2865;53.114;9.130;2022-08-23T13:46:15;4.10;;;1.30;;
5684;SDS011;2865;53.114;9.130;2022-08-23T13:48:43;1.93;;;1.20;;
5684;SDS011;2865;53.114;9.130;2022-08-23T13:53:58;3.43;;;1.47;;
5684;SDS011;2865;53.114;9.130;2022-08-23T13:56:23;2.53;;;1.20;;
5684;SDS011;2865;53.114;9.130;2022-08-23T13:58:52;1.30;;;0.93;;
5684;SDS011;2865;53.114;9.130;2022-08-23T14:01:18;4.60;;;1.30;;
5684;SDS011;2865;53.114;9.130;2022-08-23T14:03:44;1.30;;;1.13;;
5684;SDS011;2865;53.114;9.130;2022-08-23T14:06:09;1.30;;;1.10;;
5684;SDS011;2865;53.114;9.130;2022-08-23T14:08:34;1.23;;;1.10;;
5684;SDS011;2865;53.114;9.130;2022-08-23T14:11:00;1.57;;;1.10;;
5684;SDS011;2865;53.114;9.130;2022-08-23T14:13:27;9.30;;;0.90;;
5684;SDS011;2865;53.114;9.130;2022-08-23T14:15:50;2.20;;;1.00;;
5684;SDS011;2865;53.114;9.130;2022-08-23T14:18:16;1.33;;;1.00;;
5684;SDS011;2865;53.114;9.130;2022-08-23T14:20:41;3.37;;;1.10;;
5684;SDS011;2865;53.114;9.130;2022-08-23T14:23:06;2.77;;;1.07;;
5684;SDS011;2865;53.114;9.130;2022-08-23T14:25:32;1.30;;;0.97;;
5684;SDS011;2865;53.114;9.130;2022-08-23T14:27:57;2.43;;;1.10;;
5684;SDS011;2865;53.114;9.130;2022-08-23T14:30:25;1.73;;;1.03;;
5684;SDS011;2865;53.114;9.130;2022-08-23T14:32:50;3.10;;;1.10;;
5684;SDS011;2865;53.114;9.130;2022-08-23T14:35:16;1.50;;;1.17;;
5684;SDS011;2865;53.114;9.130;2022-08-23T14:37:41;4.00;;;1.00;;
5684;SDS011;2865;53.114;9.130;2022-08-23T14:40:07;1.30;;;1.00;;
5684;SDS011;2865;53.114;9.130;2022-08-23T14:42:33;1.90;;;1.13;;
5684;SDS011;2865;53.114;9.130;2022-08-23T14:44:58;3.30;;;1.10;;
5684;SDS011;2865;53.114;9.130;2022-08-23T14:47:23;3.13;;;1.43;;
5684;SDS011;2865;53.114;9.130;2022-08-23T14:49:49;1.17;;;0.90;;
5684;SDS011;2865;53.114;9.130;2022-08-23T14:52:14;4.73;;;1.37;;
5684;SDS011;2865;53.114;9.130;2022-08-23T14:54:39;1.93;;;1.30;;
5684;SDS011;2865;53.114;9.130;2022-08-23T14:57:05;1.77;;;1.20;;
5684;SDS011;2865;53.114;9.130;2022-08-23T14:59:30;2.77;;;1.23;;
5684;SDS011;2865;53.114;9.130;2022-08-23T15:01:56;2.40;;;0.90;;
5684;SDS011;2865;53.114;9.130;2022-08-23T15:04:22;3.30;;;1.17;;
5684;SDS011;2865;53.114;9.130;2022-08-23T15:06:46;1.23;;;1.13;;
5684;SDS011;2865;53.114;9.130;2022-08-23T15:09:12;3.70;;;1.73;;
5684;SDS011;2865;53.114;9.130;2022-08-23T15:11:37;2.33;;;1.33;;
5684;SDS011;2865;53.114;9.130;2022-08-23T15:14:02;2.23;;;1.27;;
5684;SDS011;2865;53.114;9.130;2022-08-23T15:16:28;2.43;;;1.27;;
5684;SDS011;2865;53.114;9.130;2022-08-23T15:18:53;4.50;;;1.50;;
5684;SDS011;2865;53.114;9.130;2022-08-23T15:21:18;1.00;;;0.90;;
5684;SDS011;2865;53.114;9.130;2022-08-23T15:23:45;1.30;;;1.20;;
5684;SDS011;2865;53.114;9.130;2022-08-23T15:26:10;1.90;;;1.20;;
5684;SDS011;2865;53.114;9.130;2022-08-23T15:28:35;3.67;;;1.30;;
5684;SDS011;2865;53.114;9.130;2022-08-23T15:31:00;1.70;;;1.07;;
5684;SDS011;2865;53.114;9.130;2022-08-23T15:33:26;1.77;;;1.20;;
5684;SDS011;2865;53.114;9.130;2022-08-23T15:35:51;1.73;;;1.00;;
5684;SDS011;2865;53.114;9.130;2022-08-23T15:38:17;1.80;;;1.13;;
5684;SDS011;2865;53.114;9.130;2022-08-23T15:40:41;4.60;;;0.97;;
5684;SDS011;2865;53.114;9.130;2022-08-23T15:43:07;3.13;;;1.17;;
5684;SDS011;2865;53.114;9.130;2022-08-23T15:45:32;4.83;;;1.50;;
5684;SDS011;2865;53.114;9.130;2022-08-23T15:47:58;4.03;;;1.60;;
5684;SDS011;2865;53.114;9.130;2022-08-23T15:50:24;2.57;;;1.03;;
5684;SDS011;2865;53.114;9.130;2022-08-23T15:52:49;3.80;;;1.33;;
5684;SDS011;2865;53.114;9.130;2022-08-23T15:55:15;2.30;;;1.77;;